Time;durP1;ratioP1;P1;durP2;ratioP2;P2;SDS_P1;SDS_P2;PMS_P1;PMS_P2;Temp;Humidity;BMP_temperature;BMP_pressure;BME280_temperature;BME280_humidity;BME280_pressure;Samples;Min_cycle;Max_cycle;Signal;HPM_P1;HPM_P2
2022/06/19 00:01:35;;;;;;;11.85;4.57;;;24.00;99.90;;;;;;5054809;28;20191;-73
2022/06/19 00:04:04;;;;;;;10.40;4.07;;;24.10;99.90;;;;;;5054805;28;20172;-72
2022/06/19 00:06:29;;;;;;;12.65;3.97;;;24.00;99.90;;;;;;5054401;28;20180;-74
2022/06/19 00:08:55;;;;;;;8.57;3.67;;;23.90;99.90;;;;;;5053799;28;20184;-74
2022/06/19 00:11:22;;;;;;;9.65;4.03;;;24.00;99.90;;;;;;5055511;28;20175;-74
2022/06/19 00:13:48;;;;;;;11.18;4.40;;;24.00;99.90;;;;;;5055328;28;20255;-75
2022/06/19 00:16:15;;;;;;;12.07;4.28;;;23.90;99.90;;;;;;5054978;28;20283;-74
2022/06/19 00:18:41;;;;;;;9.45;4.32;;;23.90;99.90;;;;;;5054690;28;20243;-74
2022/06/19 00:21:08;;;;;;;10.43;4.38;;;24.00;99.90;;;;;;5054734;28;20203;-75
2022/06/19 00:23:34;;;;;;;13.45;4.70;;;24.00;99.90;;;;;;5054998;28;20207;-73
2022/06/19 00:26:00;;;;;;;7.03;4.03;;;23.80;99.90;;;;;;5053580;28;20222;-75
2022/06/19 00:28:26;;;;;;;9.60;4.03;;;23.90;99.90;;;;;;5054527;28;20164;-73
2022/06/19 00:30:51;;;;;;;9.05;4.25;;;23.90;99.90;;;;;;5054718;28;20160;-75
2022/06/19 00:33:17;;;;;;;10.23;4.20;;;23.80;99.90;;;;;;5054684;28;20168;-75
2022/06/19 00:35:43;;;;;;;8.25;3.95;;;23.70;99.90;;;;;;5055107;28;20161;-74
2022/06/19 00:38:09;;;;;;;9.65;4.25;;;23.60;99.90;;;;;;5054968;28;20221;-74
2022/06/19 00:40:34;;;;;;;8.52;4.80;;;23.50;99.90;;;;;;5067393;28;20202;-75
2022/06/19 00:43:01;;;;;;;10.15;4.50;;;23.60;99.90;;;;;;5069170;28;20169;-73
2022/06/19 00:45:49;;;;;;;6.82;3.85;;;23.60;99.90;;;;;;5068008;28;20161;-74
2022/06/19 00:48:22;;;;;;;11.35;4.35;;;23.50;99.90;;;;;;5071709;28;20164;-76
2022/06/19 00:50:50;;;;;;;13.15;4.68;;;23.50;99.90;;;;;;5057491;28;20167;-75
2022/06/19 00:53:26;;;;;;;9.70;4.13;;;23.50;99.90;;;;;;5053901;28;20251;-74
2022/06/19 00:55:52;;;;;;;12.00;3.88;;;23.40;99.90;;;;;;5054693;28;20156;-75
2022/06/19 00:58:38;;;;;;;10.32;3.70;;;23.30;99.90;;;;;;5054178;28;20381;-73
2022/06/19 01:01:25;;;;;;;8.30;3.67;;;23.30;99.90;;;;;;5054659;28;20511;-75
2022/06/19 01:03:53;;;;;;;7.70;4.30;;;23.40;99.90;;;;;;5058875;28;20195;-75
2022/06/19 01:06:21;;;;;;;8.70;4.30;;;23.30;99.90;;;;;;5057537;28;20172;-74
2022/06/19 01:08:47;;;;;;;6.68;3.70;;;23.40;99.90;;;;;;5060103;28;20168;-74
2022/06/19 01:11:14;;;;;;;13.85;4.20;;;23.30;99.90;;;;;;5059010;28;20156;-74
2022/06/19 01:13:40;;;;;;;11.23;4.07;;;23.40;99.90;;;;;;5062254;28;20186;-73
2022/06/19 01:16:07;;;;;;;11.82;4.38;;;23.40;99.90;;;;;;5058754;28;20596;-72
2022/06/19 01:18:33;;;;;;;9.85;4.00;;;23.40;99.90;;;;;;5054416;28;20185;-73
2022/06/19 01:21:16;;;;;;;8.65;3.70;;;23.10;99.90;;;;;;5054034;28;20303;-77
2022/06/19 01:23:51;;;;;;;13.40;3.45;;;23.10;99.90;;;;;;5053899;28;20175;-74
2022/06/19 01:26:21;;;;;;;9.65;3.75;;;23.10;99.90;;;;;;5054361;28;20626;-74
2022/06/19 01:28:55;;;;;;;11.40;4.55;;;23.10;99.90;;;;;;5054271;28;20160;-73
2022/06/19 01:31:31;;;;;;;10.30;4.45;;;22.90;99.90;;;;;;5053849;28;20579;-74
2022/06/19 01:34:01;;;;;;;16.20;3.85;;;22.90;99.90;;;;;;5053521;28;20580;-73
2022/06/19 01:36:30;;;;;;;8.95;3.70;;;23.00;99.90;;;;;;5053649;28;20161;-72
2022/06/19 01:38:57;;;;;;;7.50;3.70;;;23.00;99.90;;;;;;5053694;28;20169;-75
2022/06/19 01:41:27;;;;;;;9.80;3.67;;;23.10;99.90;;;;;;5053289;28;20241;-74
2022/06/19 01:43:52;;;;;;;8.43;4.03;;;23.10;99.90;;;;;;5054428;28;20194;-73
2022/06/19 01:46:18;;;;;;;8.50;4.43;;;23.10;99.90;;;;;;5055865;28;20175;-74
2022/06/19 01:48:45;;;;;;;9.00;4.18;;;23.10;99.90;;;;;;5057458;28;20160;-74
2022/06/19 01:51:11;;;;;;;8.98;3.85;;;23.00;99.90;;;;;;5057777;28;20477;-74
2022/06/19 01:54:03;;;;;;;14.13;4.20;;;23.10;99.90;;;;;;5057607;28;20167;-74
2022/06/19 01:56:29;;;;;;;10.40;3.60;;;23.00;99.90;;;;;;5050688;28;20499;-73
2022/06/19 01:59:04;;;;;;;9.77;4.05;;;23.00;99.90;;;;;;5058489;28;20285;-74
2022/06/19 02:01:32;;;;;;;11.70;3.55;;;23.10;99.90;;;;;;5058567;28;20214;-74
2022/06/19 02:04:00;;;;;;;10.77;3.83;;;22.90;99.90;;;;;;5057932;28;20156;-73
2022/06/19 02:06:30;;;;;;;12.18;3.55;;;22.70;99.90;;;;;;5058945;28;20191;-75
2022/06/19 02:08:56;;;;;;;12.00;3.67;;;22.70;99.90;;;;;;5058327;28;20160;-75
2022/06/19 02:11:22;;;;;;;12.45;3.78;;;22.80;99.90;;;;;;5064874;28;20179;-73
2022/06/19 02:13:49;;;;;;;11.82;3.70;;;22.60;99.90;;;;;;5072687;28;20168;-74
2022/06/19 02:16:18;;;;;;;6.45;3.78;;;22.70;99.90;;;;;;5060622;28;20156;-73
2022/06/19 02:18:49;;;;;;;5.38;3.45;;;22.60;99.90;;;;;;5056372;28;20517;-73
2022/06/19 02:21:22;;;;;;;6.68;3.67;;;22.70;99.90;;;;;;5057142;28;20203;-73
2022/06/19 02:23:49;;;;;;;9.75;3.88;;;22.50;99.90;;;;;;5056147;28;20187;-73
2022/06/19 02:26:15;;;;;;;15.25;3.40;;;22.60;99.90;;;;;;5056911;28;20160;-74
2022/06/19 02:28:48;;;;;;;7.80;3.63;;;22.50;99.90;;;;;;5057158;28;20199;-74
2022/06/19 02:31:16;;;;;;;13.38;3.80;;;22.50;99.90;;;;;;5058573;28;20203;-75
2022/06/19 02:33:47;;;;;;;8.90;3.75;;;22.40;99.90;;;;;;5062446;28;20165;-73
2022/06/19 02:36:34;;;;;;;11.38;3.97;;;22.40;99.90;;;;;;5070887;28;20175;-75
2022/06/19 02:39:12;;;;;;;8.00;3.90;;;22.40;99.90;;;;;;5070162;28;20222;-74
2022/06/19 02:41:45;;;;;;;12.02;3.67;;;22.40;99.90;;;;;;5070967;28;20191;-76
2022/06/19 02:44:11;;;;;;;10.93;3.83;;;22.50;99.90;;;;;;5060141;28;20160;-75
2022/06/19 02:46:36;;;;;;;13.10;3.38;;;22.60;99.90;;;;;;5057786;28;20161;-75
2022/06/19 02:49:03;;;;;;;12.95;3.55;;;22.50;99.90;;;;;;5056843;28;20219;-73
2022/06/19 02:51:29;;;;;;;8.30;3.30;;;22.50;99.90;;;;;;5056329;28;20164;-74
2022/06/19 02:53:54;;;;;;;7.72;3.13;;;22.40;99.90;;;;;;5056519;28;20217;-74
2022/06/19 02:56:20;;;;;;;8.70;3.67;;;22.50;99.90;;;;;;5055597;28;20165;-75
2022/06/19 02:58:46;;;;;;;9.05;3.25;;;22.60;99.90;;;;;;5056597;28;20433;-74
2022/06/19 03:01:13;;;;;;;5.78;3.33;;;22.60;99.90;;;;;;5056043;28;20192;-74
2022/06/19 03:03:38;;;;;;;11.68;3.58;;;22.30;99.90;;;;;;5055954;28;20555;-74
2022/06/19 03:06:05;;;;;;;6.60;2.65;;;22.20;99.90;;;;;;5054466;28;20216;-74
2022/06/19 03:08:31;;;;;;;7.60;3.50;;;22.50;99.90;;;;;;5056600;28;20164;-73
2022/06/19 03:10:56;;;;;;;9.68;4.10;;;22.60;99.90;;;;;;5056161;28;20213;-74
2022/06/19 03:13:22;;;;;;;11.50;3.65;;;22.70;99.90;;;;;;5055787;28;20164;-74
2022/06/19 03:16:02;;;;;;;7.53;3.58;;;22.80;99.90;;;;;;5056306;28;20623;-74
2022/06/19 03:18:28;;;;;;;7.25;3.15;;;22.90;99.90;;;;;;5055896;28;20194;-74
2022/06/19 03:20:55;;;;;;;8.48;3.38;;;22.70;99.90;;;;;;5054968;28;20326;-74
2022/06/19 03:23:23;;;;;;;10.70;3.63;;;22.80;99.90;;;;;;5055866;28;20176;-73
2022/06/19 03:25:48;;;;;;;6.22;3.50;;;22.90;99.90;;;;;;5055441;28;20626;-73
2022/06/19 03:28:14;;;;;;;7.60;3.70;;;22.70;99.90;;;;;;5055755;28;20168;-74
2022/06/19 03:30:40;;;;;;;8.30;3.35;;;22.90;99.90;;;;;;5056186;28;20247;-73
2022/06/19 03:33:06;;;;;;;12.40;3.42;;;23.00;99.90;;;;;;5055869;28;20164;-74
2022/06/19 03:35:32;;;;;;;9.25;3.50;;;22.80;99.90;;;;;;5055846;28;20156;-73
2022/06/19 03:37:57;;;;;;;8.82;4.13;;;23.00;99.90;;;;;;5055401;28;20593;-76
2022/06/19 03:40:23;;;;;;;9.48;3.38;;;23.20;99.90;;;;;;5055338;28;20195;-74
2022/06/19 03:42:49;;;;;;;9.20;3.65;;;23.20;99.90;;;;;;5059746;28;20220;-75
2022/06/19 03:45:15;;;;;;;9.63;3.72;;;23.10;99.90;;;;;;5065798;28;20591;-75
2022/06/19 03:47:41;;;;;;;4.35;2.88;;;23.20;99.90;;;;;;5064943;28;20200;-74
2022/06/19 03:50:07;;;;;;;11.80;3.95;;;23.20;99.90;;;;;;5063564;28;20164;-74
2022/06/19 03:52:33;;;;;;;7.90;3.58;;;23.30;99.90;;;;;;5060354;28;20514;-74
2022/06/19 03:54:58;;;;;;;7.40;3.13;;;23.10;99.90;;;;;;5058484;28;20183;-73
2022/06/19 03:57:25;;;;;;;6.70;3.20;;;23.10;99.90;;;;;;5061161;28;20353;-72
2022/06/19 03:59:51;;;;;;;7.82;3.05;;;23.00;99.90;;;;;;5062476;28;20218;-74
2022/06/19 04:02:18;;;;;;;10.55;3.30;;;23.10;99.90;;;;;;5060203;28;20180;-73
2022/06/19 04:04:45;;;;;;;11.60;3.80;;;23.30;99.90;;;;;;5061831;28;20163;-71
2022/06/19 04:07:14;;;;;;;6.97;3.08;;;23.40;99.90;;;;;;5063105;28;20172;-73
2022/06/19 04:09:39;;;;;;;6.68;3.10;;;23.40;99.90;;;;;;5059934;28;20160;-73
2022/06/19 04:12:05;;;;;;;6.60;3.25;;;23.30;99.90;;;;;;5058472;28;20512;-73
2022/06/19 04:14:31;;;;;;;14.23;3.42;;;23.30;99.90;;;;;;5058251;28;20488;-75
2022/06/19 04:16:57;;;;;;;8.80;3.20;;;23.30;99.90;;;;;;5063900;28;20164;-74
2022/06/19 04:19:24;;;;;;;10.50;3.63;;;23.50;99.90;;;;;;5064009;28;20196;-72
2022/06/19 04:21:49;;;;;;;5.32;2.70;;;23.40;99.90;;;;;;5065608;28;20222;-74
2022/06/19 04:24:18;;;;;;;11.63;3.40;;;23.50;99.90;;;;;;5060998;28;20160;-73
2022/06/19 04:26:44;;;;;;;11.30;3.30;;;23.70;99.90;;;;;;5057419;28;20153;-73
2022/06/19 04:29:10;;;;;;;6.97;3.45;;;23.70;99.90;;;;;;5066084;28;20243;-73
2022/06/19 04:31:36;;;;;;;8.57;3.17;;;23.60;99.90;;;;;;5066621;28;20242;-73
2022/06/19 04:34:02;;;;;;;3.90;3.00;;;23.70;99.90;;;;;;5067971;28;20348;-73
2022/06/19 04:36:30;;;;;;;6.32;3.42;;;23.70;99.90;;;;;;5064025;28;20172;-75
2022/06/19 04:38:56;;;;;;;6.82;3.15;;;23.80;99.90;;;;;;5054135;28;20156;-73
2022/06/19 04:41:28;;;;;;;12.13;4.38;;;23.90;99.90;;;;;;5054770;28;20200;-75
2022/06/19 04:43:55;;;;;;;5.85;2.85;;;23.90;99.90;;;;;;5054279;28;20262;-72
2022/06/19 04:46:21;;;;;;;8.10;3.25;;;24.00;99.90;;;;;;5054508;28;20187;-71
2022/06/19 04:48:47;;;;;;;7.82;3.58;;;24.00;99.90;;;;;;5054016;28;20501;-73
2022/06/19 04:51:14;;;;;;;13.18;3.65;;;24.00;99.90;;;;;;5054562;28;20239;-74
2022/06/19 04:53:40;;;;;;;8.20;3.72;;;24.20;99.90;;;;;;5054219;28;20160;-74
2022/06/19 04:56:07;;;;;;;10.45;2.85;;;24.20;99.90;;;;;;5052879;28;20611;-72
2022/06/19 04:58:33;;;;;;;8.65;3.20;;;24.20;99.90;;;;;;5054382;28;20239;-74
2022/06/19 05:01:01;;;;;;;8.05;2.95;;;24.30;99.90;;;;;;5054375;28;20215;-74
2022/06/19 05:03:28;;;;;;;9.23;3.58;;;24.20;99.90;;;;;;5054234;28;20159;-73
2022/06/19 05:05:53;;;;;;;6.97;2.83;;;24.20;99.90;;;;;;5054303;28;20180;-72
2022/06/19 05:08:20;;;;;;;7.68;3.63;;;24.30;99.90;;;;;;5052365;28;20226;-71
2022/06/19 05:10:46;;;;;;;6.05;3.40;;;24.20;99.90;;;;;;5053910;28;20168;-73
2022/06/19 05:13:22;;;;;;;9.40;3.50;;;24.20;99.90;;;;;;5054050;28;20190;-74
2022/06/19 05:15:49;;;;;;;4.88;3.17;;;24.30;99.90;;;;;;5054014;28;20186;-73
2022/06/19 05:18:16;;;;;;;11.23;3.60;;;24.30;99.90;;;;;;5052564;28;20164;-71
2022/06/19 05:20:42;;;;;;;7.57;3.60;;;24.30;99.90;;;;;;5053789;28;20223;-75
2022/06/19 05:23:11;;;;;;;10.15;3.92;;;24.30;99.90;;;;;;5053388;28;20245;-72
2022/06/19 05:25:37;;;;;;;10.07;3.97;;;24.40;99.90;;;;;;5053421;28;20235;-74
2022/06/19 05:28:03;;;;;;;9.00;3.38;;;24.30;99.90;;;;;;5053452;28;20160;-74
2022/06/19 05:30:29;;;;;;;9.57;3.88;;;24.30;99.90;;;;;;5053663;28;20679;-74
2022/06/19 05:32:54;;;;;;;10.88;3.33;;;24.40;99.90;;;;;;5053564;28;20251;-73
2022/06/19 05:35:20;;;;;;;7.93;3.90;;;24.50;99.90;;;;;;5053376;28;20207;-77
2022/06/19 05:37:46;;;;;;;3.70;3.30;;;24.50;99.90;;;;;;5053669;28;20235;-73
2022/06/19 05:40:11;;;;;;;8.63;4.10;;;24.60;99.90;;;;;;5053481;28;20156;-74
2022/06/19 05:42:38;;;;;;;8.82;4.20;;;24.60;99.90;;;;;;5052223;28;20168;-75
2022/06/19 05:45:04;;;;;;;4.35;3.53;;;24.60;99.90;;;;;;5052116;28;20632;-74
2022/06/19 05:47:29;;;;;;;5.57;3.70;;;24.70;99.90;;;;;;5054217;28;20495;-75
2022/06/19 05:49:58;;;;;;;8.57;4.07;;;24.80;99.90;;;;;;5055899;28;20183;-75
2022/06/19 05:52:25;;;;;;;5.85;3.53;;;24.80;99.90;;;;;;5057355;28;20171;-73
2022/06/19 05:54:52;;;;;;;8.30;3.72;;;24.80;99.90;;;;;;5061595;28;20161;-72
2022/06/19 05:57:18;;;;;;;11.05;3.92;;;24.90;99.90;;;;;;5053638;28;20172;-72
2022/06/19 05:59:44;;;;;;;9.93;3.70;;;24.90;99.90;;;;;;5051995;28;20235;-71
2022/06/19 06:02:13;;;;;;;20.10;4.38;;;25.00;99.90;;;;;;5053403;28;20199;-72
2022/06/19 06:04:39;;;;;;;8.13;3.75;;;25.10;99.90;;;;;;5053586;28;20172;-71
2022/06/19 06:07:11;;;;;;;5.07;3.30;;;25.20;99.90;;;;;;5052075;28;20179;-74
2022/06/19 06:09:37;;;;;;;6.38;3.40;;;25.30;99.90;;;;;;5053653;28;20201;-73
2022/06/19 06:12:05;;;;;;;6.07;3.10;;;25.40;99.90;;;;;;5053071;28;20160;-73
2022/06/19 06:14:30;;;;;;;7.80;3.58;;;25.60;99.90;;;;;;5053493;28;20172;-74
2022/06/19 06:16:57;;;;;;;4.28;3.30;;;25.60;99.90;;;;;;5051983;28;20178;-75
2022/06/19 06:19:22;;;;;;;9.13;3.00;;;25.70;99.90;;;;;;5053094;28;20327;-74
2022/06/19 06:21:48;;;;;;;10.88;3.75;;;25.80;99.90;;;;;;5052981;28;20685;-71
2022/06/19 06:24:15;;;;;;;6.00;3.75;;;25.80;99.90;;;;;;5053276;28;20256;-73
2022/06/19 06:26:41;;;;;;;8.55;5.10;;;25.90;99.90;;;;;;5052560;28;20188;-73
2022/06/19 06:29:07;;;;;;;5.53;3.40;;;26.00;99.90;;;;;;5053568;28;20175;-75
2022/06/19 06:31:34;;;;;;;6.95;3.72;;;26.10;99.90;;;;;;5056153;28;20163;-74
2022/06/19 06:34:00;;;;;;;6.07;3.22;;;26.10;99.90;;;;;;5057106;28;20207;-74
2022/06/19 06:36:27;;;;;;;5.03;3.42;;;26.30;99.90;;;;;;5057426;28;20160;-74
2022/06/19 06:38:52;;;;;;;5.35;3.45;;;26.40;99.50;;;;;;5059478;28;20161;-75
2022/06/19 06:41:18;;;;;;;8.32;3.65;;;26.40;99.30;;;;;;5062476;28;20224;-73
2022/06/19 06:43:45;;;;;;;5.40;3.15;;;26.50;98.50;;;;;;5063528;28;20183;-73
2022/06/19 06:46:20;;;;;;;4.50;3.22;;;26.60;98.20;;;;;;5063049;28;20153;-74
2022/06/19 06:48:46;;;;;;;5.63;3.17;;;26.70;98.20;;;;;;5058755;28;20164;-71
2022/06/19 06:51:15;;;;;;;5.15;3.25;;;26.90;97.30;;;;;;5057765;28;20221;-76
2022/06/19 06:53:41;;;;;;;7.95;3.45;;;26.90;97.10;;;;;;5058362;28;20191;-73
2022/06/19 06:56:08;;;;;;;5.63;3.35;;;27.00;96.10;;;;;;5056143;28;20188;-75
2022/06/19 06:58:34;;;;;;;3.72;2.92;;;27.10;95.80;;;;;;5064529;28;20646;-72
2022/06/19 07:01:10;;;;;;;4.88;2.97;;;27.30;96.60;;;;;;5055635;28;20216;-72
2022/06/19 07:03:36;;;;;;;4.97;3.00;;;27.40;95.50;;;;;;5064039;28;20176;-73
2022/06/19 07:06:02;;;;;;;7.55;3.28;;;27.40;94.90;;;;;;5064329;28;20496;-72
2022/06/19 07:08:28;;;;;;;7.20;3.40;;;27.60;94.50;;;;;;5063487;28;20194;-73
2022/06/19 07:10:53;;;;;;;5.10;3.13;;;27.80;93.70;;;;;;5057525;28;20188;-73
2022/06/19 07:13:19;;;;;;;5.40;3.17;;;28.00;92.70;;;;;;5059443;28;20271;-71
2022/06/19 07:15:44;;;;;;;6.05;3.17;;;28.10;92.40;;;;;;5052027;28;20188;-72
2022/06/19 07:18:11;;;;;;;12.90;3.30;;;28.20;91.50;;;;;;5063406;28;20654;-74
2022/06/19 07:20:37;;;;;;;5.47;3.08;;;28.40;90.90;;;;;;5054360;28;20224;-74
2022/06/19 07:23:04;;;;;;;5.30;3.42;;;28.50;90.20;;;;;;5059897;28;20605;-71
2022/06/19 07:25:31;;;;;;;6.43;3.00;;;28.80;89.80;;;;;;5056102;28;20175;-74
2022/06/19 07:27:59;;;;;;;15.30;3.40;;;29.00;89.50;;;;;;5056508;28;20201;-73
2022/06/19 07:30:26;;;;;;;8.10;3.50;;;29.50;89.50;;;;;;5045531;28;20185;-74
2022/06/19 07:32:52;;;;;;;13.05;2.85;;;29.60;84.80;;;;;;5055860;28;20700;-73
2022/06/19 07:35:18;;;;;;;6.28;2.63;;;29.80;80.70;;;;;;5055795;28;20168;-71
2022/06/19 07:37:44;;;;;;;6.65;2.90;;;30.00;79.20;;;;;;5055397;28;20619;-73
2022/06/19 07:40:15;;;;;;;5.65;2.72;;;30.30;77.90;;;;;;5055993;28;20176;-72
2022/06/19 07:42:42;;;;;;;6.35;2.53;;;30.40;74.40;;;;;;5056432;28;20239;-74
2022/06/19 07:45:08;;;;;;;10.82;3.20;;;30.80;66.70;;;;;;5051851;28;20640;-73
2022/06/19 07:50:18;;;;;;;12.05;3.00;;;31.20;63.00;;;;;;5055137;28;20161;-72
2022/06/19 07:52:46;;;;;;;5.47;2.67;;;31.50;60.30;;;;;;5055334;28;20160;-74
2022/06/19 07:55:15;;;;;;;7.88;2.08;;;31.30;58.30;;;;;;5055532;28;20611;-74
2022/06/19 07:57:41;;;;;;;11.45;2.58;;;31.40;55.70;;;;;;5054863;28;20214;-73
2022/06/19 08:00:11;;;;;;;4.63;2.97;;;31.70;56.60;;;;;;5050183;28;20187;-72
2022/06/19 08:02:37;;;;;;;7.20;3.05;;;31.60;54.50;;;;;;5054981;28;20176;-74
2022/06/19 08:05:05;;;;;;;5.65;2.50;;;31.90;55.20;;;;;;5045620;28;20199;-73
2022/06/19 08:07:32;;;;;;;10.85;2.45;;;32.00;52.70;;;;;;5054901;28;20163;-73
2022/06/19 08:09:58;;;;;;;8.52;2.63;;;32.10;52.30;;;;;;5054772;28;20503;-73
2022/06/19 08:12:24;;;;;;;5.50;2.78;;;32.10;52.60;;;;;;5054999;28;20164;-74
2022/06/19 08:14:49;;;;;;;9.07;3.10;;;32.20;52.50;;;;;;5054538;28;20172;-72
2022/06/19 08:17:15;;;;;;;8.55;2.70;;;32.40;51.90;;;;;;5053664;28;20619;-74
2022/06/19 08:19:40;;;;;;;7.50;2.90;;;32.30;51.00;;;;;;5054306;28;20245;-72
2022/06/19 08:22:06;;;;;;;11.65;2.83;;;32.20;50.40;;;;;;5054558;28;20230;-75
2022/06/19 08:24:31;;;;;;;11.88;6.47;;;32.30;50.20;;;;;;5054067;28;20247;-74
2022/06/19 08:27:01;;;;;;;8.55;2.83;;;32.50;50.90;;;;;;5055138;28;20243;-73
2022/06/19 08:29:27;;;;;;;10.88;2.97;;;32.60;50.40;;;;;;5053787;28;20202;-74
2022/06/19 08:31:52;;;;;;;8.52;2.72;;;32.80;49.40;;;;;;5054927;28;20172;-74
2022/06/19 08:34:18;;;;;;;9.70;2.83;;;32.90;49.20;;;;;;5054194;28;20212;-74
2022/06/19 08:36:44;;;;;;;18.30;2.85;;;33.00;50.20;;;;;;5053651;28;20156;-73
2022/06/19 08:39:14;;;;;;;7.78;2.42;;;32.90;47.20;;;;;;5052641;28;20328;-72
2022/06/19 08:41:58;;;;;;;7.38;2.53;;;32.90;47.30;;;;;;5053896;28;20633;-73
2022/06/19 08:44:54;;;;;;;8.68;2.47;;;33.00;47.20;;;;;;5053744;28;20168;-74
2022/06/19 08:48:11;;;;;;;10.75;3.05;;;33.10;47.40;;;;;;5053398;28;20251;-74
2022/06/19 08:50:46;;;;;;;8.73;2.90;;;33.10;47.10;;;;;;5049388;28;20198;-74
2022/06/19 08:53:27;;;;;;;8.18;2.95;;;33.20;46.70;;;;;;5054198;28;20182;-74
2022/06/19 08:56:06;;;;;;;10.13;2.60;;;33.10;47.60;;;;;;5053825;28;20243;-73
2022/06/19 08:58:47;;;;;;;8.48;2.95;;;33.40;48.00;;;;;;5052881;28;20633;-74
2022/06/19 09:01:31;;;;;;;8.65;3.08;;;33.60;47.80;;;;;;5053154;28;20636;-71
2022/06/19 09:07:03;;;;;;;19.92;3.10;;;33.40;47.40;;;;;;5053092;28;20250;-76
2022/06/19 09:09:52;;;;;;;9.70;2.80;;;33.20;46.80;;;;;;5053269;28;20176;-71
2022/06/19 09:12:31;;;;;;;7.72;2.92;;;33.30;48.00;;;;;;5053223;28;20169;-73
2022/06/19 09:15:05;;;;;;;11.52;3.33;;;33.10;47.60;;;;;;5053792;28;20160;-73
2022/06/19 09:17:54;;;;;;;11.98;3.38;;;33.20;48.30;;;;;;5052782;28;20164;-72
2022/06/19 09:20:25;;;;;;;7.45;3.78;;;33.30;48.00;;;;;;5052988;28;20192;-76
2022/06/19 09:23:15;;;;;;;4.43;2.88;;;33.20;48.40;;;;;;5053499;28;20258;-76
2022/06/19 09:25:54;;;;;;;12.52;4.10;;;33.30;48.90;;;;;;5054524;28;20196;-72
2022/06/19 09:28:40;;;;;;;4.93;3.40;;;33.60;49.00;;;;;;5055379;28;20160;-71
2022/06/19 09:31:15;;;;;;;9.13;3.80;;;33.70;48.50;;;;;;5057146;28;20268;-74
2022/06/19 09:33:47;;;;;;;5.38;3.40;;;33.60;48.50;;;;;;5057069;28;20199;-73
2022/06/19 09:36:30;;;;;;;6.28;3.67;;;33.70;48.80;;;;;;5058467;28;20168;-71
2022/06/19 09:39:15;;;;;;;9.07;3.58;;;33.60;48.90;;;;;;5055118;28;20168;-72
2022/06/19 09:41:50;;;;;;;12.23;3.60;;;33.50;49.10;;;;;;5053571;28;20294;-71
2022/06/19 09:44:28;;;;;;;9.65;3.72;;;33.70;48.90;;;;;;5052560;28;20557;-73
2022/06/19 09:47:05;;;;;;;6.80;3.10;;;33.80;48.20;;;;;;5051671;28;20596;-73
2022/06/19 09:49:39;;;;;;;4.57;3.20;;;33.50;48.90;;;;;;5052951;28;20176;-74
2022/06/19 09:52:34;;;;;;;10.52;3.67;;;33.50;49.50;;;;;;5053035;28;20168;-72
2022/06/19 09:55:18;;;;;;;7.53;3.50;;;33.70;49.00;;;;;;5051532;28;20238;-73
2022/06/19 09:58:19;;;;;;;7.15;3.53;;;33.80;48.60;;;;;;5054931;28;20223;-73
2022/06/19 10:00:47;;;;;;;11.55;3.38;;;34.10;49.00;;;;;;5055894;28;20310;-74
2022/06/19 10:03:21;;;;;;;8.90;2.95;;;34.10;48.30;;;;;;5063149;28;20161;-74
2022/06/19 10:05:50;;;;;;;7.80;3.42;;;34.10;47.30;;;;;;5066718;28;20271;-74
2022/06/19 10:08:28;;;;;;;11.45;3.30;;;34.30;47.40;;;;;;5066714;28;20507;-75
2022/06/19 10:10:59;;;;;;;6.03;3.67;;;34.60;47.60;;;;;;5067682;28;20183;-75
2022/06/19 10:13:35;;;;;;;12.50;3.28;;;34.60;46.40;;;;;;5065554;28;20245;-73
2022/06/19 10:16:04;;;;;;;9.05;3.30;;;34.40;45.20;;;;;;5062640;28;20219;-71
2022/06/19 10:18:40;;;;;;;6.63;2.85;;;34.60;45.70;;;;;;5059567;28;20171;-75
2022/06/19 10:22:13;;;;;;;8.73;3.70;;;34.60;45.60;;;;;;5057330;28;20200;-73
2022/06/19 10:24:30;;;;;;;8.07;2.72;;;34.70;45.30;;;;;;5055601;28;20504;-74
2022/06/19 10:27:34;;;;;;;8.43;3.17;;;35.00;45.60;;;;;;5054776;28;20215;-73
2022/06/19 10:30:06;;;;;;;7.68;4.07;;;35.10;44.50;;;;;;5055598;28;20322;-73
2022/06/19 10:32:51;;;;;;;12.75;3.90;;;35.10;43.90;;;;;;5055509;28;20586;-73
2022/06/19 10:35:31;;;;;;;12.27;3.60;;;35.20;43.80;;;;;;5056149;28;20253;-73
2022/06/19 10:38:12;;;;;;;7.35;2.80;;;35.10;42.80;;;;;;5055589;28;20172;-75
2022/06/19 10:40:55;;;;;;;5.18;3.22;;;35.10;43.00;;;;;;5055547;28;20282;-74
2022/06/19 10:43:51;;;;;;;10.60;2.97;;;35.30;43.50;;;;;;5055607;28;20172;-74
2022/06/19 10:46:17;;;;;;;11.75;2.97;;;35.20;43.40;;;;;;5056192;28;20653;-74
2022/06/19 10:49:15;;;;;;;12.95;3.30;;;35.40;44.10;;;;;;5056081;28;20255;-73
2022/06/19 10:52:22;;;;;;;8.55;2.88;;;35.50;44.30;;;;;;5055134;28;20218;-74
2022/06/19 10:55:03;;;;;;;7.75;3.08;;;35.40;42.90;;;;;;5055497;28;20298;-73
2022/06/19 10:58:03;;;;;;;12.18;3.50;;;35.30;43.00;;;;;;5055298;28;20198;-73
2022/06/19 11:00:29;;;;;;;6.90;3.10;;;35.60;41.80;;;;;;5055130;28;20196;-73
2022/06/19 11:05:55;;;;;;;8.38;3.38;;;35.50;41.90;;;;;;5055018;28;20171;-72
2022/06/19 11:08:25;;;;;;;6.75;2.72;;;35.90;41.50;;;;;;5055387;28;20234;-73
2022/06/19 11:10:57;;;;;;;9.00;3.00;;;36.10;41.70;;;;;;5054203;28;20175;-74
2022/06/19 11:13:24;;;;;;;9.23;2.97;;;36.10;40.40;;;;;;5055557;28;20164;-73
2022/06/19 11:16:05;;;;;;;11.50;4.07;;;36.00;39.70;;;;;;5052946;28;20254;-74
2022/06/19 11:18:45;;;;;;;17.23;3.45;;;36.20;39.90;;;;;;5055204;28;20243;-74
2022/06/19 11:21:15;;;;;;;8.73;3.15;;;36.40;38.90;;;;;;5054878;28;20187;-76
2022/06/19 11:23:51;;;;;;;11.35;2.60;;;36.80;38.50;;;;;;5055766;28;20160;-73
2022/06/19 11:26:21;;;;;;;12.10;3.65;;;36.50;36.80;;;;;;5055374;28;20186;-73
2022/06/19 11:28:58;;;;;;;7.57;3.00;;;36.60;37.40;;;;;;5053730;28;20231;-73
2022/06/19 11:31:33;;;;;;;10.30;3.20;;;36.70;37.20;;;;;;5054884;28;20160;-74
2022/06/19 11:37:34;;;;;;;8.98;3.53;;;36.90;36.80;;;;;;5054942;28;20207;-74
2022/06/19 11:40:00;;;;;;;11.70;3.42;;;37.10;36.50;;;;;;5054072;28;20171;-76
2022/06/19 11:42:37;;;;;;;9.30;3.28;;;37.00;36.00;;;;;;5054989;28;20279;-75
2022/06/19 11:45:14;;;;;;;10.93;3.38;;;36.90;36.60;;;;;;5055242;28;20270;-75
2022/06/19 11:47:45;;;;;;;10.05;2.75;;;37.00;36.10;;;;;;5054356;28;20539;-76
2022/06/19 11:50:26;;;;;;;8.02;2.50;;;37.00;36.70;;;;;;5054096;28;20179;-73
2022/06/19 11:53:06;;;;;;;11.05;3.13;;;36.80;35.40;;;;;;5055529;28;20171;-72
2022/06/19 11:55:37;;;;;;;11.23;3.05;;;36.80;35.90;;;;;;5054969;28;20216;-74
2022/06/19 11:58:30;;;;;;;13.57;3.17;;;37.00;36.00;;;;;;5055082;28;20223;-72
2022/06/19 12:01:08;;;;;;;10.60;2.67;;;37.00;35.70;;;;;;5054886;28;20203;-74
2022/06/19 12:03:46;;;;;;;8.55;3.10;;;37.20;35.60;;;;;;5055080;28;20155;-74
2022/06/19 12:06:14;;;;;;;6.30;2.75;;;37.20;35.80;;;;;;5054740;28;20156;-73
2022/06/19 12:08:58;;;;;;;11.80;3.00;;;37.20;34.70;;;;;;5054331;28;20305;-74
2022/06/19 12:11:43;;;;;;;11.65;3.58;;;37.20;35.80;;;;;;5053967;28;20163;-74
2022/06/19 12:14:11;;;;;;;15.50;3.42;;;37.40;35.30;;;;;;5054009;28;20217;-72
2022/06/19 12:16:37;;;;;;;6.00;2.67;;;37.40;35.10;;;;;;5053968;28;20186;-74
2022/06/19 12:19:28;;;;;;;13.40;3.67;;;37.50;34.10;;;;;;5053837;28;20164;-73
2022/06/19 12:21:59;;;;;;;10.40;3.25;;;37.70;34.60;;;;;;5053814;28;20227;-73
2022/06/19 12:24:42;;;;;;;14.82;3.90;;;37.50;33.90;;;;;;5054000;28;20164;-74
2022/06/19 12:27:13;;;;;;;17.98;4.05;;;37.10;35.50;;;;;;5054264;28;20163;-74
2022/06/19 12:29:51;;;;;;;9.38;3.75;;;37.20;34.50;;;;;;5054079;28;20171;-73
2022/06/19 12:32:27;;;;;;;12.05;3.67;;;37.50;34.60;;;;;;5054046;28;20156;-72
2022/06/19 12:34:57;;;;;;;11.05;3.00;;;37.70;35.20;;;;;;5054341;28;20160;-73
2022/06/19 12:37:25;;;;;;;8.68;3.15;;;38.00;34.80;;;;;;5052866;28;20493;-74
2022/06/19 12:39:51;;;;;;;12.02;3.50;;;38.00;34.20;;;;;;5053565;28;20166;-74
2022/06/19 12:42:38;;;;;;;7.13;3.05;;;38.00;34.00;;;;;;5053603;28;20195;-73
2022/06/19 12:45:36;;;;;;;15.30;3.28;;;37.80;33.50;;;;;;5054119;28;20168;-73
2022/06/19 12:48:37;;;;;;;9.43;3.08;;;37.80;33.70;;;;;;5053424;28;20148;-74
2022/06/19 12:51:19;;;;;;;12.90;3.28;;;38.00;33.50;;;;;;5052243;28;20243;-72
2022/06/19 12:54:06;;;;;;;14.80;4.10;;;38.00;33.90;;;;;;5053668;28;20171;-73
2022/06/19 12:57:01;;;;;;;17.27;5.82;;;37.90;32.90;;;;;;5052762;28;20167;-73
2022/06/19 13:00:08;;;;;;;7.15;2.97;;;37.90;33.00;;;;;;5051844;28;20227;-73
2022/06/19 13:02:43;;;;;;;14.25;4.68;;;38.00;33.10;;;;;;5052590;28;20211;-74
2022/06/19 13:05:51;;;;;;;15.77;3.78;;;38.10;33.60;;;;;;5053506;28;20169;-74
2022/06/19 13:08:53;;;;;;;14.57;3.20;;;38.40;34.00;;;;;;4991840;28;20187;-74
2022/06/19 13:11:42;;;;;;;11.02;4.05;;;38.00;32.20;;;;;;4974459;28;20259;-76
2022/06/19 13:14:17;;;;;;;13.63;4.60;;;38.10;32.90;;;;;;4969734;28;20288;-73
2022/06/19 13:16:55;;;;;;;9.85;3.40;;;38.30;32.80;;;;;;4975163;28;20239;-73
2022/06/19 13:19:36;;;;;;;11.63;3.80;;;38.20;32.20;;;;;;4991645;28;20226;-72